Coitsville, Ohio
Current Conditions -  °F | °C
As of 12:51 PM on Monday 24 Nov 2014 (Local Time) from KYNG Reporting Station
Overcast Overcast  
Wind Chill: 64°   Ceiling: 6000
Heat Index: 64°   Visibility: 10mi
Dew Point: 44°   Wind: 22mph
Humidity: 48%   Direction: 210°SSW
Pressure: 29.31"   Gusts: 37mph
Location:  41.0609°N, 80.5426°W
Report Text: KYNG 241751Z 21019G32KT 10SM FEW035 BKN060 OVC080 18/07 A2931 RMK AO2 PK WND 22044/1726 SLP923 60000 T01780067 10183 20144 56007
Loading
Personal Weather Stations






























Interactive Weather Map New forecast layout! Learn more

10-Day Weather Forecast

Advertisements
Track Severe Weather on mobile